createdAt,value
2023-05-10T00:01:36.579Z,49.70
2023-05-10T00:04:40.647Z,49.91
2023-05-10T00:07:46.025Z,49.78
2023-05-10T00:10:50.486Z,49.76
2023-05-10T00:13:54.645Z,49.71
2023-05-10T00:16:58.737Z,50.09
2023-05-10T00:20:03.182Z,49.81
2023-05-10T00:23:07.200Z,50.04
2023-05-10T00:26:11.200Z,50.32
2023-05-10T00:29:15.435Z,50.17
2023-05-10T00:32:19.512Z,50.36
2023-05-10T00:35:23.916Z,50.99
2023-05-10T00:38:28.003Z,50.84
2023-05-10T00:41:34.936Z,51.22
2023-05-10T00:44:40.111Z,51.28
2023-05-10T00:47:44.292Z,51.15
2023-05-10T00:50:48.410Z,51.12
2023-05-10T00:53:52.714Z,51.52
2023-05-10T00:56:58.238Z,52.25
2023-05-10T01:00:04.118Z,52.10
2023-05-10T01:03:08.247Z,54.05
2023-05-10T01:06:12.543Z,55.12
2023-05-10T01:09:16.965Z,54.36
2023-05-10T01:12:22.371Z,53.63
2023-05-10T01:15:27.218Z,54.99
2023-05-10T01:18:34.123Z,55.59
2023-05-10T01:21:49.823Z,56.16
2023-05-10T01:25:11.918Z,55.88
2023-05-10T01:28:40.122Z,55.89
2023-05-10T01:32:21.567Z,56.30
2023-05-10T01:35:46.863Z,56.34
2023-05-10T01:38:59.569Z,56.36
2023-05-10T01:42:10.865Z,57.16
2023-05-10T01:45:35.351Z,57.53
2023-05-10T01:48:54.626Z,57.93
2023-05-10T01:52:05.093Z,57.68
2023-05-10T01:55:12.592Z,57.96
2023-05-10T01:58:22.073Z,57.95
2023-05-10T02:01:28.370Z,58.12
2023-05-10T02:04:35.162Z,58.05
2023-05-10T02:07:40.120Z,58.89
2023-05-10T02:10:46.697Z,59.30
2023-05-10T02:13:52.761Z,59.58
2023-05-10T02:16:58.224Z,59.52
2023-05-10T02:20:04.982Z,59.94
2023-05-10T02:23:10.860Z,59.68
2023-05-10T02:26:17.121Z,59.65
2023-05-10T02:29:22.160Z,59.35
2023-05-10T02:32:28.117Z,59.75
2023-05-10T02:35:34.417Z,59.07
2023-05-10T02:38:40.959Z,58.61
2023-05-10T02:41:47.331Z,58.19
2023-05-10T02:44:54.116Z,58.42
2023-05-10T02:47:59.297Z,58.28
2023-05-10T02:51:08.120Z,58.07
2023-05-10T02:54:19.681Z,58.68
2023-05-10T02:57:29.743Z,58.11
2023-05-10T03:00:34.183Z,57.77
2023-05-10T03:03:38.281Z,57.37
2023-05-10T03:06:42.709Z,57.19
2023-05-10T03:09:47.140Z,56.79
2023-05-10T03:12:57.004Z,56.66
2023-05-10T03:16:09.658Z,56.54
2023-05-10T03:19:33.371Z,56.43
2023-05-10T03:23:01.452Z,56.33
2023-05-10T03:26:06.098Z,56.31
2023-05-10T03:29:12.643Z,55.89
2023-05-10T03:32:16.712Z,56.02
2023-05-10T03:35:21.129Z,55.85
2023-05-10T03:38:25.646Z,55.63
2023-05-10T03:41:30.581Z,55.59
2023-05-10T03:44:34.694Z,55.97
2023-05-10T03:47:39.082Z,55.71
2023-05-10T03:50:44.060Z,55.56
2023-05-10T03:53:48.688Z,55.73
2023-05-10T03:56:52.831Z,55.37
2023-05-10T03:59:57.335Z,55.32
2023-05-10T04:03:01.890Z,55.12
2023-05-10T04:06:06.632Z,55.17
2023-05-10T04:09:10.814Z,55.15
2023-05-10T04:12:16.987Z,54.98
2023-05-10T04:15:21.200Z,55.07
2023-05-10T04:18:25.214Z,55.24
2023-05-10T04:21:29.204Z,54.98
2023-05-10T04:24:33.355Z,55.08
2023-05-10T04:27:37.970Z,54.83
2023-05-10T04:30:42.661Z,54.92
2023-05-10T04:33:46.759Z,54.45
2023-05-10T04:36:50.818Z,54.32
2023-05-10T04:39:54.870Z,53.92
2023-05-10T04:42:59.694Z,53.65
2023-05-10T04:46:04.215Z,53.87
2023-05-10T04:49:08.113Z,53.85
2023-05-10T04:52:12.545Z,53.69
2023-05-10T04:55:17.296Z,53.90
2023-05-10T04:58:21.414Z,53.58
2023-05-10T05:01:25.568Z,53.28
2023-05-10T05:04:30.878Z,53.00
2023-05-10T05:07:35.002Z,52.70
2023-05-10T05:10:39.058Z,52.76
2023-05-10T05:13:43.026Z,52.36
2023-05-10T05:16:47.050Z,52.10
2023-05-10T05:19:51.052Z,52.30
2023-05-10T05:22:55.074Z,52.25
2023-05-10T05:25:59.054Z,51.78
2023-05-10T05:29:03.938Z,51.88
2023-05-10T05:32:09.542Z,51.57
2023-05-10T05:35:13.878Z,51.20
2023-05-10T05:38:18.665Z,51.00
2023-05-10T05:41:22.956Z,50.86
2023-05-10T05:44:28.930Z,50.95
2023-05-10T05:47:33.010Z,50.71
2023-05-10T05:50:37.052Z,50.37
2023-05-10T05:53:41.178Z,50.40
2023-05-10T05:56:45.492Z,50.17
2023-05-10T05:59:49.620Z,49.84
2023-05-10T06:02:53.985Z,49.67
2023-05-10T06:05:58.162Z,49.44
2023-05-10T06:09:02.181Z,49.47
2023-05-10T06:12:06.413Z,49.41
2023-05-10T06:15:11.448Z,48.97
2023-05-10T06:18:15.502Z,48.53
2023-05-10T06:21:19.979Z,48.02
2023-05-10T06:24:24.094Z,47.99
2023-05-10T06:27:28.213Z,47.39
2023-05-10T06:30:32.766Z,47.47
2023-05-10T06:33:37.434Z,47.08
2023-05-10T06:36:42.308Z,47.09
2023-05-10T06:39:46.341Z,46.99
2023-05-10T06:42:50.672Z,46.63
2023-05-10T06:45:55.499Z,45.58
2023-05-10T06:48:59.606Z,45.38
2023-05-10T06:52:03.615Z,44.81
2023-05-10T06:55:08.149Z,44.17
2023-05-10T06:58:12.265Z,44.33
2023-05-10T07:01:16.642Z,43.97
2023-05-10T07:04:20.687Z,43.01
2023-05-10T07:07:24.920Z,42.80
2023-05-10T07:10:29.042Z,42.16
2023-05-10T07:13:33.242Z,41.44
2023-05-10T07:16:37.502Z,41.32
2023-05-10T07:19:41.806Z,40.67
2023-05-10T07:22:45.828Z,39.58
2023-05-10T07:25:52.500Z,39.11
2023-05-10T07:28:56.615Z,38.90
2023-05-10T07:32:00.728Z,37.83
2023-05-10T07:35:05.585Z,37.82
2023-05-10T07:38:09.686Z,37.78
2023-05-10T07:41:13.707Z,36.96
2023-05-10T07:44:20.253Z,35.71
2023-05-10T07:47:24.664Z,35.44
2023-05-10T07:50:29.133Z,35.30
2023-05-10T07:53:33.654Z,35.20
2023-05-10T07:56:37.894Z,33.90
2023-05-10T07:59:42.389Z,34.20
2023-05-10T08:02:46.683Z,34.15
2023-05-10T08:05:51.105Z,32.40
2023-05-10T08:08:55.548Z,32.45
2023-05-10T08:12:01.130Z,32.13
2023-05-10T08:15:06.160Z,32.96
2023-05-10T08:18:10.569Z,31.83
2023-05-10T08:21:15.374Z,31.07
2023-05-10T08:24:19.432Z,31.42
2023-05-10T08:27:24.152Z,31.39
2023-05-10T08:30:28.188Z,31.92
2023-05-10T08:33:32.948Z,31.20
2023-05-10T08:36:37.357Z,30.26
2023-05-10T08:39:41.652Z,30.77
2023-05-10T08:42:52.656Z,31.08
2023-05-10T08:45:57.888Z,32.08
2023-05-10T08:49:04.184Z,31.80
2023-05-10T08:52:09.431Z,31.61
2023-05-10T08:55:13.461Z,31.49
2023-05-10T08:58:17.550Z,30.38
2023-05-10T09:01:22.561Z,30.52
2023-05-10T09:04:27.455Z,30.92
2023-05-10T09:07:32.054Z,31.25
2023-05-10T09:10:36.380Z,32.12
2023-05-10T09:13:40.491Z,30.57
2023-05-10T09:16:44.470Z,30.41
2023-05-10T09:19:48.644Z,31.29
2023-05-10T09:22:52.655Z,30.97
2023-05-10T09:26:05.678Z,29.97
2023-05-10T09:29:09.790Z,31.13
2023-05-10T09:32:16.055Z,30.66
2023-05-10T09:35:22.836Z,30.23
2023-05-10T09:38:27.469Z,30.36
2023-05-10T09:41:31.454Z,31.62
2023-05-10T09:44:36.592Z,30.28
2023-05-10T09:47:40.641Z,30.79
2023-05-10T09:50:44.657Z,30.18
2023-05-10T09:53:48.774Z,29.64
2023-05-10T09:56:52.997Z,29.90
2023-05-10T09:59:58.657Z,29.68
2023-05-10T10:03:03.137Z,30.17
2023-05-10T10:06:18.932Z,29.52
2023-05-10T10:09:31.096Z,29.19
2023-05-10T10:12:35.097Z,29.32
2023-05-10T10:15:39.738Z,29.63
2023-05-10T10:18:44.386Z,29.07
2023-05-10T10:21:51.508Z,29.62
2023-05-10T10:24:55.875Z,29.00
2023-05-10T10:28:16.780Z,28.86
2023-05-10T10:31:51.969Z,28.92
2023-05-10T10:34:57.311Z,28.29
2023-05-10T10:38:01.617Z,28.39
2023-05-10T10:41:30.474Z,28.36
2023-05-10T10:44:37.997Z,28.85
2023-05-10T10:47:44.542Z,28.54
2023-05-10T10:50:48.686Z,28.42
2023-05-10T10:53:52.908Z,27.83
2023-05-10T10:57:15.255Z,27.68
2023-05-10T11:00:22.816Z,27.25
2023-05-10T11:03:30.067Z,27.22
2023-05-10T11:06:36.163Z,26.70
2023-05-10T11:09:41.287Z,27.08
2023-05-10T11:13:01.965Z,26.88
2023-05-10T11:16:11.919Z,26.77
2023-05-10T11:19:17.773Z,26.47
2023-05-10T11:22:21.785Z,26.61
2023-05-10T11:25:29.303Z,26.63
2023-05-10T11:28:33.383Z,26.68
2023-05-10T11:31:44.808Z,26.49
2023-05-10T11:34:49.757Z,27.00
2023-05-10T11:37:53.753Z,27.31
2023-05-10T11:40:57.858Z,27.29
2023-05-10T11:44:02.945Z,27.34
2023-05-10T11:47:07.287Z,27.10
2023-05-10T11:50:12.370Z,27.49
2023-05-10T11:53:16.488Z,30.05
2023-05-10T11:56:22.887Z,29.74
2023-05-10T11:59:26.974Z,27.74
2023-05-10T12:02:31.663Z,27.96
2023-05-10T12:05:37.254Z,28.34
2023-05-10T12:08:46.392Z,28.11
2023-05-10T12:11:50.569Z,26.72
2023-05-10T12:14:54.733Z,26.86
2023-05-10T12:17:58.869Z,27.05
2023-05-10T12:21:05.444Z,27.77
2023-05-10T12:24:09.746Z,28.04
2023-05-10T12:30:37.662Z,27.58
2023-05-10T12:33:44.220Z,27.01
2023-05-10T12:36:51.962Z,26.79
2023-05-10T12:39:55.943Z,26.67
2023-05-10T12:42:59.965Z,26.28
2023-05-10T12:46:07.137Z,27.02
2023-05-10T12:49:11.738Z,26.76
2023-05-10T12:52:15.691Z,27.70
2023-05-10T12:55:19.814Z,26.57
2023-05-10T12:58:35.056Z,26.02
2023-05-10T13:01:40.154Z,25.87
2023-05-10T13:04:44.289Z,26.05
2023-05-10T13:07:48.241Z,25.41
2023-05-10T13:10:52.194Z,25.08
2023-05-10T13:13:56.806Z,24.21
2023-05-10T13:17:01.149Z,24.44
2023-05-10T13:20:06.808Z,24.59
2023-05-10T13:23:11.374Z,24.42
2023-05-10T13:26:15.616Z,24.51
2023-05-10T13:29:20.162Z,24.55
2023-05-10T13:32:25.043Z,24.07
2023-05-10T13:35:29.102Z,23.37
2023-05-10T13:38:33.443Z,22.84
2023-05-10T13:41:38.149Z,22.34
2023-05-10T13:44:42.392Z,21.54
2023-05-10T13:47:46.579Z,21.44
2023-05-10T13:50:50.718Z,21.52
2023-05-10T13:53:54.662Z,21.69
2023-05-10T13:56:58.659Z,21.67
2023-05-10T14:00:03.117Z,21.19
2023-05-10T14:03:12.656Z,21.17
2023-05-10T14:06:17.005Z,20.99
2023-05-10T14:09:21.572Z,21.18
2023-05-10T14:12:26.019Z,20.78
2023-05-10T14:15:29.994Z,20.60
2023-05-10T14:18:34.054Z,20.83
2023-05-10T14:21:39.165Z,20.75
2023-05-10T14:24:44.520Z,20.34
2023-05-10T14:27:48.864Z,20.06
2023-05-10T14:30:53.179Z,20.01
2023-05-10T14:33:58.322Z,20.23
2023-05-10T14:37:02.543Z,20.90
2023-05-10T14:40:07.585Z,20.84
2023-05-10T14:43:11.612Z,21.41
2023-05-10T14:46:15.658Z,21.57
2023-05-10T14:49:19.651Z,21.89
2023-05-10T14:52:23.595Z,22.56
2023-05-10T14:55:27.568Z,22.93
2023-05-10T14:58:33.988Z,23.04
2023-05-10T15:01:38.959Z,23.33
2023-05-10T15:04:43.354Z,23.66
2023-05-10T15:07:47.923Z,24.27
2023-05-10T15:10:52.889Z,24.61
2023-05-10T15:13:56.978Z,24.91
2023-05-10T15:17:01.081Z,25.41
2023-05-10T15:20:06.035Z,25.14
2023-05-10T15:23:10.010Z,25.48
2023-05-10T15:26:13.930Z,25.18
2023-05-10T15:29:20.876Z,25.51
2023-05-10T15:32:24.966Z,25.83
2023-05-10T15:35:29.273Z,26.14
2023-05-10T15:38:34.144Z,26.18
2023-05-10T15:41:38.604Z,26.05
2023-05-10T15:44:43.146Z,26.28
2023-05-10T15:47:47.251Z,25.75
2023-05-10T15:50:51.307Z,26.07
2023-05-10T15:54:06.367Z,26.65
2023-05-10T15:57:11.733Z,26.38
2023-05-10T16:00:16.521Z,26.12
2023-05-10T16:03:20.439Z,25.91
2023-05-10T16:06:24.602Z,25.37
2023-05-10T16:09:28.535Z,25.31
2023-05-10T16:12:33.367Z,25.08
2023-05-10T16:15:37.400Z,24.64
2023-05-10T16:18:41.964Z,24.61
2023-05-10T16:21:46.000Z,24.62
2023-05-10T16:24:53.644Z,24.74
2023-05-10T16:27:58.420Z,24.93
2023-05-10T16:31:02.544Z,24.97
2023-05-10T16:34:06.790Z,25.05
2023-05-10T16:37:11.334Z,25.30
2023-05-10T16:40:15.537Z,25.76
2023-05-10T16:43:19.641Z,25.21
2023-05-10T16:46:23.679Z,24.95
2023-05-10T16:49:27.788Z,24.96
2023-05-10T16:52:32.668Z,25.11
2023-05-10T16:55:36.627Z,25.12
2023-05-10T16:58:40.530Z,25.43
2023-05-10T17:01:45.153Z,25.67
2023-05-10T17:04:49.914Z,26.10
2023-05-10T17:07:53.865Z,26.20
2023-05-10T17:11:01.953Z,26.62
2023-05-10T17:14:06.264Z,26.79
2023-05-10T17:17:10.280Z,26.68
2023-05-10T17:20:14.300Z,27.20
2023-05-10T17:23:18.290Z,27.16
2023-05-10T17:26:22.532Z,27.34
2023-05-10T17:29:28.070Z,27.38
2023-05-10T17:32:32.326Z,27.90
2023-05-10T17:35:36.327Z,27.86
2023-05-10T17:38:40.327Z,28.05
2023-05-10T17:41:44.360Z,28.39
2023-05-10T17:44:48.366Z,28.38
2023-05-10T17:47:52.453Z,28.74
2023-05-10T17:50:56.707Z,28.65
2023-05-10T17:54:00.727Z,28.71
2023-05-10T17:57:04.838Z,29.24
2023-05-10T18:00:10.174Z,29.29
2023-05-10T18:03:14.209Z,29.28
2023-05-10T18:06:18.216Z,29.66
2023-05-10T18:09:22.417Z,29.92
2023-05-10T18:12:26.859Z,30.02
2023-05-10T18:15:32.179Z,30.33
2023-05-10T18:18:36.254Z,30.51
2023-05-10T18:21:40.367Z,30.73
2023-05-10T18:24:44.356Z,31.33
2023-05-10T18:27:48.471Z,31.29
2023-05-10T18:30:52.516Z,31.41
2023-05-10T18:33:56.511Z,31.76
2023-05-10T18:37:00.745Z,32.15
2023-05-10T18:40:09.671Z,32.15
2023-05-10T18:43:13.778Z,32.23
2023-05-10T18:46:18.126Z,32.49
2023-05-10T18:49:22.320Z,32.89
2023-05-10T18:52:26.661Z,33.13
2023-05-10T18:55:30.852Z,33.36
2023-05-10T18:58:36.010Z,33.78
2023-05-10T19:01:43.156Z,33.62
2023-05-10T19:04:47.357Z,34.11
2023-05-10T19:07:51.437Z,34.08
2023-05-10T19:10:55.947Z,34.20
2023-05-10T19:14:00.594Z,34.31
2023-05-10T19:17:07.767Z,34.74
2023-05-10T19:20:12.121Z,34.98
2023-05-10T19:23:17.247Z,35.01
2023-05-10T19:26:24.056Z,34.91
2023-05-10T19:29:28.760Z,35.06
2023-05-10T19:32:33.002Z,35.06
2023-05-10T19:35:37.101Z,35.64
2023-05-10T19:38:41.203Z,35.99
2023-05-10T19:41:45.238Z,35.96
2023-05-10T19:44:49.352Z,36.24
2023-05-10T19:47:53.599Z,36.58
2023-05-10T19:51:02.718Z,36.57
2023-05-10T19:54:07.236Z,36.91
2023-05-10T19:57:12.166Z,36.62
2023-05-10T20:00:17.918Z,37.01
2023-05-10T20:03:22.008Z,36.99
2023-05-10T20:06:26.072Z,37.30
2023-05-10T20:09:30.013Z,37.06
2023-05-10T20:12:34.097Z,37.11
2023-05-10T20:15:38.317Z,36.87
2023-05-10T20:18:42.572Z,36.85
2023-05-10T20:21:46.649Z,36.97
2023-05-10T20:24:50.777Z,36.83
2023-05-10T20:27:54.792Z,37.18
2023-05-10T20:31:00.649Z,37.48
2023-05-10T20:34:04.666Z,37.36
2023-05-10T20:37:08.788Z,37.94
2023-05-10T20:40:13.155Z,38.22
2023-05-10T20:43:17.223Z,37.94
2023-05-10T20:46:21.784Z,37.60
2023-05-10T20:49:25.868Z,37.87
2023-05-10T20:52:29.871Z,37.76
2023-05-10T20:55:33.998Z,38.22
2023-05-10T20:58:38.025Z,38.26
2023-05-10T21:01:42.278Z,37.89
2023-05-10T21:04:46.611Z,38.14
2023-05-10T21:07:54.284Z,38.75
2023-05-10T21:10:59.515Z,38.26
2023-05-10T21:14:03.838Z,38.31
2023-05-10T21:17:07.947Z,38.19
2023-05-10T21:20:12.917Z,38.28
2023-05-10T21:23:17.013Z,38.45
2023-05-10T21:26:21.898Z,38.71
2023-05-10T21:29:26.065Z,38.93
2023-05-10T21:32:30.289Z,38.69
2023-05-10T21:35:34.402Z,39.00
2023-05-10T21:38:38.418Z,39.01
2023-05-10T21:41:42.437Z,38.93
2023-05-10T21:44:46.698Z,38.93
2023-05-10T21:47:50.740Z,39.15
2023-05-10T21:50:54.901Z,39.19
2023-05-10T21:53:58.911Z,39.71
2023-05-10T21:57:03.026Z,39.74
2023-05-10T22:00:09.236Z,39.59
2023-05-10T22:03:13.567Z,39.73
2023-05-10T22:06:17.735Z,39.77
2023-05-10T22:09:21.955Z,39.94
2023-05-10T22:12:26.572Z,39.87
2023-05-10T22:15:34.222Z,39.82
2023-05-10T22:18:39.702Z,39.90
2023-05-10T22:21:43.862Z,39.92
2023-05-10T22:24:47.977Z,40.02
2023-05-10T22:27:52.403Z,40.10
2023-05-10T22:30:56.470Z,40.32
2023-05-10T22:34:00.638Z,40.36
2023-05-10T22:37:04.655Z,40.16
2023-05-10T22:40:09.713Z,40.67
2023-05-10T22:43:13.715Z,40.53
2023-05-10T22:46:17.723Z,40.52
2023-05-10T22:49:21.739Z,40.49
2023-05-10T22:52:25.760Z,40.68
2023-05-10T22:55:30.385Z,40.53
2023-05-10T22:58:34.582Z,40.47
2023-05-10T23:01:38.751Z,40.42
2023-05-10T23:04:43.592Z,40.71
2023-05-10T23:07:53.042Z,40.98
2023-05-10T23:10:57.064Z,40.79
2023-05-10T23:14:01.071Z,40.78
2023-05-10T23:17:05.159Z,40.89
2023-05-10T23:20:10.509Z,40.92
2023-05-10T23:23:14.603Z,40.97
2023-05-10T23:26:18.552Z,41.00
2023-05-10T23:29:23.997Z,41.14
2023-05-10T23:32:28.018Z,41.20
2023-05-10T23:35:32.120Z,41.33
2023-05-10T23:38:37.872Z,41.63
2023-05-10T23:41:42.805Z,41.56
2023-05-10T23:44:47.444Z,41.41
2023-05-10T23:47:51.384Z,41.65
2023-05-10T23:50:55.636Z,41.56
2023-05-10T23:53:59.694Z,41.87
2023-05-10T23:57:03.707Z,41.87
